Budd Lake, NJ

5:01 AM EST on January 26, 2015 (GMT -0500)
Mt Olive Township | Change Station
CLOSE
Current Station
Personal Weather Station
Location: Budd Lake, NJ
Elevation: 1013 ft
Nearby Weather Stations
Active Advisory: Winter Storm Warning Active Notice: Public Information Statement

Elev 1013 ft 40.87 °N, 74.75 °W | Updated 5 seconds ago

Snow
Snow
16.0 °F
Feels Like 16 °F
N
1.0
Wind Variable Wind from ENE
Gusts 1.0 mph

Today
High -- | Low -- °F
--% Chance of Precip.
Yesterday
High -- | Low -- °F
Precip. -- in
7:14 AM 5:08 PM
Waxing Crescent, 41% visible
Pressure 29.99 in
Visibility 2.5 miles
Clouds Few 2200 ft
Overcast 3700 ft
Windchill 16 °F
Dew Point 13 °F
Humidity 89%
Rainfall 0.00 in
Snow Depth Not available.
UV 0 out of 12
Pollen .10 out of 12
Air Quality Not available.
Flu Activity Not available.
METAR KSMQ 260953Z AUTO 05007KT 2 1/2SM -SN FEW022 OVC037 M06/M09 A2998 RMK AO2 SLP155 P0000 T10561094 TSNO

More Conditions Fewer Conditions

Pressure 29.99 in
Visibility 2.5 miles
Clouds Few 2200 ft
Overcast 3700 ft
Windchill 16 °F
Dew Point 13 °F
Humidity 89%
Rainfall 0.00 in
Snow Depth Not available.
UV 0 out of 12
Pollen .10 out of 12
Air Quality Not available.
Flu Activity Not available.
METAR KSMQ 260953Z AUTO 05007KT 2 1/2SM -SN FEW022 OVC037 M06/M09 A2998 RMK AO2 SLP155 P0000 T10561094 TSNO

More Conditions Fewer Conditions

10-Day Weather Forecast

Almanac

Astronomy

Jan. 26, 2015 Rise Set
Actual Time
Civil Twilight
Nautical Twilight
Astronomical Twilight
Moon
Length of Visible Light
Length of Day
Tomorrow will be .
, % of the Moon is Illuminated

Today's Extremes

State Highs State Lows

Community

WunderPhotos

Upload Photos

1,790,163 photos uploaded!

WunderBlogs® & News

Nearby

Air Quality

  Air Quality AQ Index Pollutant
Not available.

Snow Depth

Station Depth Elevation

Earthquake Activity

City Distance Mag. Time & Date
Minimum magnitude displayed is 2.5.

Coastal Water Temperatures

Place Temperature

Nearby Weather Stations